Terminal Aerodrome Forecast
Issued by NWS Duluth, MN

Home | Current Version | Previous Version | Text Only | Print | Product List | Glossary On
Versions: 1 2 3 4 5 6 7 8 9 10 11 12 13 14 15 16 17 18 19 20 21 22 23 24 25 26 27 28 29 30 31 32 33 34 35 36 37 38
000
FTUS43 KDLH 301700 RRA
TAFDLH
TAF
KDLH 301741Z 3018/0118 10016G21KT P6SM OVC010
     FM302000 09015G20KT P6SM SCT015
     FM010100 10011KT P6SM SCT015 BKN070
     FM010400 12011KT P6SM SCT010 BKN040
     FM010900 13008KT 5SM -SHRA BR OVC015
     FM011500 14006KT 3SM -RA BR OVC009=

USA.gov is the U.S. government's official web portal to all federal, state and local government web resources and services.